AUA8PM LOWW-LKPR
Flight info
| Callsign | AUA8PM |
|---|---|
| Flight time | 0h 35m |
| Altitude | 18000 |
| Route | LANUX2C/29 LANUX DCT VLM |
| Aircraft | DH8D/M-SDE2E3FGRY/H |
Departure
| Time | 2026-05-07 18:36 |
|---|---|
| Airport | Vienna International Airport (LOWW) |
Arrival
| Time | 2026-05-07 19:11 |
|---|---|
| Airport | Václav Havel Airport Prague (LKPR) |
| Time | Latitude | Longitude | Altitude | Speed | Heading |
|---|---|---|---|---|---|
| 2026-05-07 18:15 | 48.11409 | 16.57192 | 606 ft | 0 kts | 207° |
| 2026-05-07 18:33 | 48.11404 | 16.57188 | 606 ft | 5 kts | 209° |
| 2026-05-07 18:33 | 48.11375 | 16.57164 | 607 ft | 3 kts | 214° |
| 2026-05-07 18:33 | 48.11351 | 16.57116 | 607 ft | 9 kts | 248° |
| 2026-05-07 18:33 | 48.11306 | 16.57056 | 607 ft | 9 kts | 179° |
| 2026-05-07 18:34 | 48.11256 | 16.57130 | 608 ft | 12 kts | 116° |
| 2026-05-07 18:34 | 48.11214 | 16.57257 | 609 ft | 13 kts | 116° |
| 2026-05-07 18:34 | 48.11175 | 16.57378 | 609 ft | 11 kts | 117° |
| 2026-05-07 18:34 | 48.11141 | 16.57483 | 609 ft | 10 kts | 116° |
| 2026-05-07 18:35 | 48.11087 | 16.57530 | 610 ft | 8 kts | 192° |
| 2026-05-07 18:35 | 48.11038 | 16.57497 | 611 ft | 9 kts | 206° |
| 2026-05-07 18:35 | 48.10975 | 16.57451 | 611 ft | 8 kts | 208° |
| 2026-05-07 18:35 | 48.10959 | 16.57394 | 611 ft | 4 kts | 295° |
| 2026-05-07 18:36 | 48.11022 | 16.57205 | 611 ft | 60 kts | 295° |
| 2026-05-07 18:36 | 48.11330 | 16.56264 | 601 ft | 134 kts | 294° |
| 2026-05-07 18:36 | 48.11810 | 16.54868 | 817 ft | 157 kts | 295° |
| 2026-05-07 18:36 | 48.12314 | 16.53376 | 1333 ft | 166 kts | 285° |
| 2026-05-07 18:37 | 48.12360 | 16.51649 | 1902 ft | 169 kts | 262° |
| 2026-05-07 18:37 | 48.12111 | 16.49894 | 2453 ft | 175 kts | 255° |
| 2026-05-07 18:37 | 48.11787 | 16.48155 | 3021 ft | 174 kts | 256° |
| 2026-05-07 18:37 | 48.11710 | 16.46394 | 3552 ft | 173 kts | 277° |
| 2026-05-07 18:38 | 48.11901 | 16.44607 | 4078 ft | 173 kts | 280° |
| 2026-05-07 18:38 | 48.12102 | 16.42804 | 4563 ft | 177 kts | 281° |
| 2026-05-07 18:38 | 48.12311 | 16.40915 | 4820 ft | 194 kts | 281° |
| 2026-05-07 18:38 | 48.12524 | 16.38938 | 5403 ft | 189 kts | 281° |
| 2026-05-07 18:39 | 48.12725 | 16.37047 | 6046 ft | 183 kts | 282° |
| 2026-05-07 18:39 | 48.12924 | 16.35180 | 6633 ft | 180 kts | 283° |
| 2026-05-07 18:39 | 48.13115 | 16.33392 | 7152 ft | 179 kts | 282° |
| 2026-05-07 18:39 | 48.13311 | 16.31548 | 7648 ft | 179 kts | 282° |
| 2026-05-07 18:40 | 48.13507 | 16.29684 | 8129 ft | 181 kts | 282° |
| 2026-05-07 18:40 | 48.13703 | 16.27820 | 8601 ft | 182 kts | 283° |
| 2026-05-07 18:40 | 48.13906 | 16.25904 | 9069 ft | 184 kts | 283° |
| 2026-05-07 18:40 | 48.14105 | 16.24006 | 9535 ft | 185 kts | 283° |
| 2026-05-07 18:41 | 48.14310 | 16.22086 | 9944 ft | 191 kts | 285° |
| 2026-05-07 18:41 | 48.14922 | 16.20323 | 10087 ft | 199 kts | 324° |
| 2026-05-07 18:41 | 48.16170 | 16.19291 | 10379 ft | 208 kts | 335° |
| 2026-05-07 18:41 | 48.17504 | 16.18343 | 10752 ft | 215 kts | 335° |
| 2026-05-07 18:42 | 48.18858 | 16.17372 | 11161 ft | 221 kts | 334° |
| 2026-05-07 18:42 | 48.20252 | 16.16364 | 11596 ft | 225 kts | 334° |
| 2026-05-07 18:42 | 48.21678 | 16.15326 | 12051 ft | 228 kts | 333° |
| 2026-05-07 18:42 | 48.23102 | 16.14283 | 12503 ft | 231 kts | 333° |
| 2026-05-07 18:43 | 48.24560 | 16.13211 | 12964 ft | 233 kts | 332° |
| 2026-05-07 18:43 | 48.26017 | 16.12137 | 13423 ft | 234 kts | 332° |
| 2026-05-07 18:43 | 48.27493 | 16.11046 | 13875 ft | 235 kts | 331° |
| 2026-05-07 18:43 | 48.28963 | 16.09958 | 14325 ft | 235 kts | 332° |
| 2026-05-07 18:44 | 48.30428 | 16.08871 | 14759 ft | 235 kts | 332° |
| 2026-05-07 18:44 | 48.31918 | 16.07765 | 15177 ft | 236 kts | 332° |
| 2026-05-07 18:44 | 48.33407 | 16.06658 | 15576 ft | 237 kts | 331° |
| 2026-05-07 18:44 | 48.34909 | 16.05541 | 15963 ft | 237 kts | 331° |
| 2026-05-07 18:45 | 48.36415 | 16.04419 | 16341 ft | 238 kts | 331° |
| 2026-05-07 18:45 | 48.37931 | 16.03290 | 16710 ft | 238 kts | 331° |
| 2026-05-07 18:45 | 48.39439 | 16.02166 | 17069 ft | 239 kts | 331° |
| 2026-05-07 18:45 | 48.40942 | 16.01042 | 17408 ft | 240 kts | 331° |
| 2026-05-07 18:46 | 48.42450 | 15.99937 | 17731 ft | 240 kts | 331° |
| 2026-05-07 18:46 | 48.43991 | 15.98795 | 17927 ft | 247 kts | 330° |
| 2026-05-07 18:46 | 48.45587 | 15.97591 | 17992 ft | 260 kts | 330° |
| 2026-05-07 18:46 | 48.47276 | 15.96317 | 18011 ft | 274 kts | 330° |
| 2026-05-07 18:47 | 48.49036 | 15.94992 | 18013 ft | 287 kts | 331° |
| 2026-05-07 18:47 | 48.50864 | 15.93617 | 18013 ft | 300 kts | 331° |
| 2026-05-07 18:47 | 48.52793 | 15.92168 | 18008 ft | 310 kts | 330° |
| 2026-05-07 18:47 | 48.54768 | 15.90684 | 18011 ft | 319 kts | 331° |
| 2026-05-07 18:48 | 48.56767 | 15.89182 | 18009 ft | 326 kts | 331° |
| 2026-05-07 18:48 | 48.58828 | 15.87548 | 18010 ft | 330 kts | 328° |
| 2026-05-07 18:48 | 48.60790 | 15.85861 | 18005 ft | 333 kts | 327° |
| 2026-05-07 18:48 | 48.62827 | 15.84103 | 18005 ft | 337 kts | 327° |
| 2026-05-07 18:49 | 48.64851 | 15.82357 | 18012 ft | 339 kts | 328° |
| 2026-05-07 18:49 | 48.66918 | 15.80577 | 18005 ft | 341 kts | 328° |
| 2026-05-07 18:49 | 48.69012 | 15.78776 | 18003 ft | 343 kts | 328° |
| 2026-05-07 18:49 | 48.71083 | 15.76996 | 18009 ft | 344 kts | 328° |
| 2026-05-07 18:50 | 48.73192 | 15.75182 | 18004 ft | 345 kts | 328° |
| 2026-05-07 18:50 | 48.75293 | 15.73375 | 17997 ft | 345 kts | 328° |
| 2026-05-07 18:50 | 48.77381 | 15.71579 | 18000 ft | 346 kts | 328° |
| 2026-05-07 18:50 | 48.79490 | 15.69762 | 18002 ft | 346 kts | 327° |
| 2026-05-07 18:51 | 48.81602 | 15.67942 | 17999 ft | 347 kts | 327° |
| 2026-05-07 18:51 | 48.83709 | 15.66126 | 17997 ft | 347 kts | 327° |
| 2026-05-07 18:51 | 48.85814 | 15.64307 | 18001 ft | 347 kts | 327° |
| 2026-05-07 18:51 | 48.87916 | 15.62492 | 17998 ft | 347 kts | 327° |
| 2026-05-07 18:52 | 48.90082 | 15.60821 | 17998 ft | 349 kts | 332° |
| 2026-05-07 18:52 | 48.92318 | 15.59340 | 17996 ft | 349 kts | 333° |
| 2026-05-07 18:52 | 48.94549 | 15.57874 | 17995 ft | 349 kts | 333° |
| 2026-05-07 18:52 | 48.96772 | 15.56411 | 17995 ft | 348 kts | 333° |
| 2026-05-07 18:53 | 48.99009 | 15.54935 | 17997 ft | 348 kts | 333° |
| 2026-05-07 18:53 | 49.01228 | 15.53468 | 17997 ft | 348 kts | 333° |
| 2026-05-07 18:53 | 49.03469 | 15.51983 | 17999 ft | 348 kts | 333° |
| 2026-05-07 18:53 | 49.05690 | 15.50509 | 17996 ft | 348 kts | 333° |
| 2026-05-07 18:54 | 49.07939 | 15.49015 | 17999 ft | 348 kts | 333° |
| 2026-05-07 18:54 | 49.10020 | 15.47629 | 17994 ft | 348 kts | 333° |
| 2026-05-07 18:54 | 49.12300 | 15.46110 | 17996 ft | 348 kts | 333° |
| 2026-05-07 18:54 | 49.14473 | 15.44660 | 18000 ft | 346 kts | 333° |
| 2026-05-07 18:55 | 49.16739 | 15.43146 | 17998 ft | 346 kts | 333° |
| 2026-05-07 18:55 | 49.18934 | 15.41677 | 17997 ft | 347 kts | 333° |
| 2026-05-07 18:55 | 49.21162 | 15.40185 | 17991 ft | 347 kts | 333° |
| 2026-05-07 18:55 | 49.23393 | 15.38689 | 17990 ft | 347 kts | 333° |
| 2026-05-07 18:56 | 49.25610 | 15.37202 | 17986 ft | 347 kts | 333° |
| 2026-05-07 18:56 | 49.27856 | 15.35693 | 17989 ft | 347 kts | 333° |
| 2026-05-07 18:56 | 49.30056 | 15.34215 | 17984 ft | 347 kts | 332° |
| 2026-05-07 18:56 | 49.32295 | 15.32709 | 17989 ft | 346 kts | 332° |
| 2026-05-07 18:57 | 49.34434 | 15.31267 | 17997 ft | 346 kts | 332° |
| 2026-05-07 18:57 | 49.36678 | 15.29762 | 17993 ft | 347 kts | 333° |
| 2026-05-07 18:57 | 49.38905 | 15.28268 | 17990 ft | 347 kts | 333° |
| 2026-05-07 18:57 | 49.41132 | 15.26770 | 17988 ft | 347 kts | 333° |
| 2026-05-07 18:58 | 49.43374 | 15.25256 | 17992 ft | 347 kts | 332° |
| 2026-05-07 18:58 | 49.45587 | 15.23757 | 18004 ft | 346 kts | 332° |
| 2026-05-07 18:58 | 49.47816 | 15.22244 | 17758 ft | 346 kts | 332° |
| 2026-05-07 18:58 | 49.50015 | 15.20747 | 17367 ft | 347 kts | 333° |
| 2026-05-07 18:59 | 49.52231 | 15.19239 | 16941 ft | 348 kts | 333° |
| 2026-05-07 18:59 | 49.54459 | 15.17722 | 16496 ft | 346 kts | 333° |
| 2026-05-07 18:59 | 49.56670 | 15.16214 | 16041 ft | 345 kts | 333° |
| 2026-05-07 18:59 | 49.58856 | 15.14720 | 15590 ft | 345 kts | 333° |
| 2026-05-07 19:00 | 49.61061 | 15.13211 | 15132 ft | 343 kts | 333° |
| 2026-05-07 19:00 | 49.63244 | 15.11721 | 14691 ft | 342 kts | 333° |
| 2026-05-07 19:00 | 49.65424 | 15.10234 | 14257 ft | 341 kts | 333° |
| 2026-05-07 19:00 | 49.67598 | 15.08745 | 13809 ft | 336 kts | 333° |
| 2026-05-07 19:01 | 49.69690 | 15.07239 | 13335 ft | 329 kts | 328° |
| 2026-05-07 19:01 | 49.71367 | 15.04952 | 12964 ft | 313 kts | 307° |
| 2026-05-07 19:01 | 49.72707 | 15.02325 | 12549 ft | 308 kts | 306° |
| 2026-05-07 19:01 | 49.74023 | 14.99703 | 12148 ft | 304 kts | 305° |
| 2026-05-07 19:02 | 49.75299 | 14.97147 | 11759 ft | 300 kts | 306° |
| 2026-05-07 19:02 | 49.76574 | 14.94588 | 11369 ft | 296 kts | 306° |
| 2026-05-07 19:02 | 49.77835 | 14.92059 | 10986 ft | 293 kts | 306° |
| 2026-05-07 19:02 | 49.79069 | 14.89579 | 10602 ft | 285 kts | 306° |
| 2026-05-07 19:03 | 49.80248 | 14.87202 | 10240 ft | 273 kts | 306° |
| 2026-05-07 19:03 | 49.81375 | 14.84914 | 9894 ft | 261 kts | 306° |
| 2026-05-07 19:03 | 49.82457 | 14.82710 | 9569 ft | 258 kts | 306° |
| 2026-05-07 19:03 | 49.83549 | 14.80495 | 9235 ft | 258 kts | 306° |
| 2026-05-07 19:04 | 49.84653 | 14.78253 | 8871 ft | 260 kts | 306° |
| 2026-05-07 19:04 | 49.85885 | 14.76209 | 8590 ft | 258 kts | 317° |
| 2026-05-07 19:04 | 49.87050 | 14.74154 | 8376 ft | 251 kts | 301° |
| 2026-05-07 19:04 | 49.87945 | 14.71806 | 8136 ft | 249 kts | 300° |
| 2026-05-07 19:05 | 49.88925 | 14.69563 | 7820 ft | 250 kts | 304° |
| 2026-05-07 19:05 | 49.89965 | 14.67382 | 7476 ft | 252 kts | 306° |
| 2026-05-07 19:05 | 49.91008 | 14.65226 | 7136 ft | 253 kts | 306° |
| 2026-05-07 19:05 | 49.92078 | 14.63025 | 6784 ft | 254 kts | 306° |
| 2026-05-07 19:06 | 49.93157 | 14.60820 | 6435 ft | 256 kts | 306° |
| 2026-05-07 19:06 | 49.95295 | 14.56434 | 5685 ft | 246 kts | 306° |
| 2026-05-07 19:06 | 49.96313 | 14.54348 | 5299 ft | 235 kts | 307° |
| 2026-05-07 19:07 | 49.97281 | 14.52365 | 4962 ft | 224 kts | 307° |
| 2026-05-07 19:07 | 49.98219 | 14.50446 | 4668 ft | 218 kts | 307° |
| 2026-05-07 19:07 | 49.99125 | 14.48597 | 4365 ft | 210 kts | 307° |
| 2026-05-07 19:07 | 49.99985 | 14.46840 | 4139 ft | 206 kts | 308° |
| 2026-05-07 19:08 | 50.00853 | 14.45066 | 3939 ft | 204 kts | 308° |
| 2026-05-07 19:08 | 50.01716 | 14.43300 | 3654 ft | 207 kts | 308° |
| 2026-05-07 19:08 | 50.02584 | 14.41515 | 3356 ft | 202 kts | 308° |
| 2026-05-07 19:08 | 50.03402 | 14.39821 | 3061 ft | 190 kts | 308° |
| 2026-05-07 19:09 | 50.04175 | 14.38228 | 2847 ft | 176 kts | 308° |
| 2026-05-07 19:09 | 50.04896 | 14.36744 | 2622 ft | 164 kts | 307° |
| 2026-05-07 19:09 | 50.05559 | 14.35376 | 2364 ft | 150 kts | 307° |
| 2026-05-07 19:09 | 50.06126 | 14.34211 | 2178 ft | 140 kts | 307° |
| 2026-05-07 19:10 | 50.06675 | 14.33087 | 2015 ft | 135 kts | 306° |
| 2026-05-07 19:10 | 50.07235 | 14.31932 | 1854 ft | 133 kts | 306° |
| 2026-05-07 19:10 | 50.07770 | 14.30828 | 1696 ft | 133 kts | 306° |
| 2026-05-07 19:10 | 50.08326 | 14.29670 | 1518 ft | 131 kts | 306° |
| 2026-05-07 19:11 | 50.08868 | 14.28540 | 1355 ft | 130 kts | 305° |
| 2026-05-07 19:11 | 50.09410 | 14.27413 | 1225 ft | 122 kts | 307° |
| 2026-05-07 19:11 | 50.09745 | 14.26722 | 1218 ft | 54 kts | 307° |
| 2026-05-07 19:11 | 50.09961 | 14.26273 | 1208 ft | 48 kts | 307° |
| 2026-05-07 19:12 | 50.10141 | 14.25901 | 1198 ft | 34 kts | 307° |
| 2026-05-07 19:12 | 50.10249 | 14.25730 | 1192 ft | 19 kts | 327° |
| 2026-05-07 19:12 | 50.10352 | 14.25662 | 1188 ft | 10 kts | 349° |
| 2026-05-07 19:12 | 50.10443 | 14.25659 | 1185 ft | 14 kts | 15° |
| 2026-05-07 19:13 | 50.10524 | 14.25705 | 1184 ft | 15 kts | 26° |
| 2026-05-07 19:13 | 50.10619 | 14.25802 | 1183 ft | 13 kts | 34° |
| 2026-05-07 19:13 | 50.10689 | 14.25878 | 1181 ft | 0 kts | 33° |
| 2026-05-07 19:13 | 50.10694 | 14.25877 | 1181 ft | 2 kts | 339° |
| 2026-05-07 19:14 | 50.10700 | 14.25841 | 1181 ft | 6 kts | 292° |
| 2026-05-07 19:14 | 50.10723 | 14.25788 | 1180 ft | 3 kts | 304° |
| 2026-05-07 19:14 | 50.10725 | 14.25783 | 1180 ft | 0 kts | 304° |